sensor_id;sensor_type;location;lat;lon;timestamp;temperature;humidity
8838;DHT22;4455;50.880;4.698;2022-07-29T00:02:18;20.10;99.90
8838;DHT22;4455;50.880;4.698;2022-07-29T00:04:45;20.10;99.90
8838;DHT22;4455;50.880;4.698;2022-07-29T00:07:10;20.20;99.90
8838;DHT22;4455;50.880;4.698;2022-07-29T00:09:36;20.20;99.90
8838;DHT22;4455;50.880;4.698;2022-07-29T00:12:02;20.10;99.90
8838;DHT22;4455;50.880;4.698;2022-07-29T00:14:29;20.00;99.90
8838;DHT22;4455;50.880;4.698;2022-07-29T00:16:54;20.00;99.90
8838;DHT22;4455;50.880;4.698;2022-07-29T00:19:20;20.00;99.90
8838;DHT22;4455;50.880;4.698;2022-07-29T00:21:47;19.90;99.90
8838;DHT22;4455;50.880;4.698;2022-07-29T00:24:13;19.80;99.90
8838;DHT22;4455;50.880;4.698;2022-07-29T00:26:38;19.80;99.90
8838;DHT22;4455;50.880;4.698;2022-07-29T00:29:04;19.80;99.90
8838;DHT22;4455;50.880;4.698;2022-07-29T00:31:31;19.80;99.90
8838;DHT22;4455;50.880;4.698;2022-07-29T00:33:57;19.70;99.90
8838;DHT22;4455;50.880;4.698;2022-07-29T00:36:23;19.80;99.90
8838;DHT22;4455;50.880;4.698;2022-07-29T00:38:50;19.70;99.90
8838;DHT22;4455;50.880;4.698;2022-07-29T00:41:17;19.70;99.90
8838;DHT22;4455;50.880;4.698;2022-07-29T00:43:43;19.70;99.90
8838;DHT22;4455;50.880;4.698;2022-07-29T00:46:10;19.80;99.90
8838;DHT22;4455;50.880;4.698;2022-07-29T00:48:37;19.70;99.90
8838;DHT22;4455;50.880;4.698;2022-07-29T00:51:05;19.70;99.90
8838;DHT22;4455;50.880;4.698;2022-07-29T00:53:34;19.60;99.90
8838;DHT22;4455;50.880;4.698;2022-07-29T00:56:00;19.60;99.90
8838;DHT22;4455;50.880;4.698;2022-07-29T00:58:26;19.50;99.90
8838;DHT22;4455;50.880;4.698;2022-07-29T01:00:52;19.50;99.90
8838;DHT22;4455;50.880;4.698;2022-07-29T01:03:18;19.30;99.90
8838;DHT22;4455;50.880;4.698;2022-07-29T01:05:45;19.30;99.90
8838;DHT22;4455;50.880;4.698;2022-07-29T01:08:13;19.20;99.90
8838;DHT22;4455;50.880;4.698;2022-07-29T01:10:41;19.30;99.90
8838;DHT22;4455;50.880;4.698;2022-07-29T01:13:09;19.30;99.90
8838;DHT22;4455;50.880;4.698;2022-07-29T01:15:43;19.20;99.90
8838;DHT22;4455;50.880;4.698;2022-07-29T01:18:18;19.20;99.90
8838;DHT22;4455;50.880;4.698;2022-07-29T01:29:32;19.20;99.90
8838;DHT22;4455;50.880;4.698;2022-07-29T01:32:12;19.10;99.90
8838;DHT22;4455;50.880;4.698;2022-07-29T01:34:50;19.10;99.90
8838;DHT22;4455;50.880;4.698;2022-07-29T01:39:57;19.10;99.90
8838;DHT22;4455;50.880;4.698;2022-07-29T01:42:35;18.90;99.90
8838;DHT22;4455;50.880;4.698;2022-07-29T01:45:40;18.90;99.90
8838;DHT22;4455;50.880;4.698;2022-07-29T01:48:29;18.70;99.90
8838;DHT22;4455;50.880;4.698;2022-07-29T01:51:25;18.70;99.90
8838;DHT22;4455;50.880;4.698;2022-07-29T01:54:04;18.70;99.90
8838;DHT22;4455;50.880;4.698;2022-07-29T01:56:42;18.60;99.90
8838;DHT22;4455;50.880;4.698;2022-07-29T01:59:10;18.50;99.90
8838;DHT22;4455;50.880;4.698;2022-07-29T02:01:37;18.50;99.90
8838;DHT22;4455;50.880;4.698;2022-07-29T02:04:07;18.50;99.90
8838;DHT22;4455;50.880;4.698;2022-07-29T02:06:37;18.50;99.90
8838;DHT22;4455;50.880;4.698;2022-07-29T02:09:07;18.50;99.90
8838;DHT22;4455;50.880;4.698;2022-07-29T02:11:35;18.50;99.90
8838;DHT22;4455;50.880;4.698;2022-07-29T02:14:05;18.50;99.90
8838;DHT22;4455;50.880;4.698;2022-07-29T02:16:38;18.40;99.90
8838;DHT22;4455;50.880;4.698;2022-07-29T02:19:06;18.40;99.90
8838;DHT22;4455;50.880;4.698;2022-07-29T02:21:36;18.30;99.90
8838;DHT22;4455;50.880;4.698;2022-07-29T02:24:04;18.30;99.90
8838;DHT22;4455;50.880;4.698;2022-07-29T02:26:32;18.20;99.90
8838;DHT22;4455;50.880;4.698;2022-07-29T02:29:00;18.20;99.90
8838;DHT22;4455;50.880;4.698;2022-07-29T02:31:34;18.10;99.90
8838;DHT22;4455;50.880;4.698;2022-07-29T02:34:05;18.10;99.90
8838;DHT22;4455;50.880;4.698;2022-07-29T02:36:33;18.10;99.90
8838;DHT22;4455;50.880;4.698;2022-07-29T02:39:03;18.10;99.90
8838;DHT22;4455;50.880;4.698;2022-07-29T02:41:44;18.20;99.90
8838;DHT22;4455;50.880;4.698;2022-07-29T02:44:35;18.20;99.90
8838;DHT22;4455;50.880;4.698;2022-07-29T02:47:41;18.10;99.90
8838;DHT22;4455;50.880;4.698;2022-07-29T02:50:34;18.20;99.90
8838;DHT22;4455;50.880;4.698;2022-07-29T02:53:18;18.10;99.90
8838;DHT22;4455;50.880;4.698;2022-07-29T02:55:57;18.00;99.90
8838;DHT22;4455;50.880;4.698;2022-07-29T02:58:39;18.00;99.90
8838;DHT22;4455;50.880;4.698;2022-07-29T03:01:22;17.90;99.90
8838;DHT22;4455;50.880;4.698;2022-07-29T03:03:57;18.00;99.90
8838;DHT22;4455;50.880;4.698;2022-07-29T03:06:26;17.90;99.90
8838;DHT22;4455;50.880;4.698;2022-07-29T03:08:54;17.80;99.90
8838;DHT22;4455;50.880;4.698;2022-07-29T03:11:21;17.90;99.90
8838;DHT22;4455;50.880;4.698;2022-07-29T03:13:48;17.80;99.90
8838;DHT22;4455;50.880;4.698;2022-07-29T03:16:15;17.80;99.90
8838;DHT22;4455;50.880;4.698;2022-07-29T03:18:41;17.90;99.90
8838;DHT22;4455;50.880;4.698;2022-07-29T03:21:08;17.80;99.90
8838;DHT22;4455;50.880;4.698;2022-07-29T03:23:34;17.70;99.90
8838;DHT22;4455;50.880;4.698;2022-07-29T03:26:00;17.60;99.90
8838;DHT22;4455;50.880;4.698;2022-07-29T03:28:26;17.60;99.90
8838;DHT22;4455;50.880;4.698;2022-07-29T03:30:53;17.60;99.90
8838;DHT22;4455;50.880;4.698;2022-07-29T03:33:20;17.70;99.90
8838;DHT22;4455;50.880;4.698;2022-07-29T03:35:46;17.60;99.90
8838;DHT22;4455;50.880;4.698;2022-07-29T03:38:12;17.50;99.90
8838;DHT22;4455;50.880;4.698;2022-07-29T03:41:05;17.50;99.90
8838;DHT22;4455;50.880;4.698;2022-07-29T03:43:36;17.60;99.90
8838;DHT22;4455;50.880;4.698;2022-07-29T03:46:10;17.50;99.90
8838;DHT22;4455;50.880;4.698;2022-07-29T03:48:42;17.40;99.90
8838;DHT22;4455;50.880;4.698;2022-07-29T03:51:12;17.30;99.90
8838;DHT22;4455;50.880;4.698;2022-07-29T03:53:38;17.20;99.90
8838;DHT22;4455;50.880;4.698;2022-07-29T03:56:05;17.10;99.90
8838;DHT22;4455;50.880;4.698;2022-07-29T03:58:32;17.00;99.90
8838;DHT22;4455;50.880;4.698;2022-07-29T04:01:01;17.10;99.90
8838;DHT22;4455;50.880;4.698;2022-07-29T04:03:27;17.10;99.90
8838;DHT22;4455;50.880;4.698;2022-07-29T04:06:01;17.10;99.90
8838;DHT22;4455;50.880;4.698;2022-07-29T04:08:27;17.10;99.90
8838;DHT22;4455;50.880;4.698;2022-07-29T04:10:52;17.00;99.90
8838;DHT22;4455;50.880;4.698;2022-07-29T04:13:20;17.00;99.90
8838;DHT22;4455;50.880;4.698;2022-07-29T04:15:46;16.90;99.90
8838;DHT22;4455;50.880;4.698;2022-07-29T04:18:11;16.80;99.90
8838;DHT22;4455;50.880;4.698;2022-07-29T04:20:37;16.80;99.90
8838;DHT22;4455;50.880;4.698;2022-07-29T04:23:04;16.80;99.90
8838;DHT22;4455;50.880;4.698;2022-07-29T04:25:31;16.70;99.90
8838;DHT22;4455;50.880;4.698;2022-07-29T04:27:57;16.70;99.90
8838;DHT22;4455;50.880;4.698;2022-07-29T04:30:25;16.70;99.90
8838;DHT22;4455;50.880;4.698;2022-07-29T04:32:51;16.80;99.90
8838;DHT22;4455;50.880;4.698;2022-07-29T04:35:18;16.90;99.90
8838;DHT22;4455;50.880;4.698;2022-07-29T04:37:44;16.90;99.90
8838;DHT22;4455;50.880;4.698;2022-07-29T04:40:10;17.10;99.90
8838;DHT22;4455;50.880;4.698;2022-07-29T04:42:37;17.20;99.90
8838;DHT22;4455;50.880;4.698;2022-07-29T04:45:04;17.10;99.90
8838;DHT22;4455;50.880;4.698;2022-07-29T04:47:30;17.00;99.90
8838;DHT22;4455;50.880;4.698;2022-07-29T04:49:55;16.90;99.90
8838;DHT22;4455;50.880;4.698;2022-07-29T04:52:22;17.00;99.90
8838;DHT22;4455;50.880;4.698;2022-07-29T04:54:49;17.20;99.90
8838;DHT22;4455;50.880;4.698;2022-07-29T04:57:15;17.20;99.90
8838;DHT22;4455;50.880;4.698;2022-07-29T04:59:42;17.20;99.90
8838;DHT22;4455;50.880;4.698;2022-07-29T05:02:07;17.20;99.90
8838;DHT22;4455;50.880;4.698;2022-07-29T05:04:33;17.20;99.90
8838;DHT22;4455;50.880;4.698;2022-07-29T05:06:59;17.20;99.90
8838;DHT22;4455;50.880;4.698;2022-07-29T05:09:25;17.40;99.90
8838;DHT22;4455;50.880;4.698;2022-07-29T05:11:51;17.50;99.90
8838;DHT22;4455;50.880;4.698;2022-07-29T05:14:17;17.60;99.90
8838;DHT22;4455;50.880;4.698;2022-07-29T05:16:43;17.80;99.90
8838;DHT22;4455;50.880;4.698;2022-07-29T05:19:09;17.80;99.90
8838;DHT22;4455;50.880;4.698;2022-07-29T05:21:35;17.70;99.90
8838;DHT22;4455;50.880;4.698;2022-07-29T05:24:01;17.70;99.90
8838;DHT22;4455;50.880;4.698;2022-07-29T05:26:27;17.70;99.90
8838;DHT22;4455;50.880;4.698;2022-07-29T05:28:53;17.70;99.90
8838;DHT22;4455;50.880;4.698;2022-07-29T05:31:19;17.70;99.90
8838;DHT22;4455;50.880;4.698;2022-07-29T05:33:45;17.80;99.90
8838;DHT22;4455;50.880;4.698;2022-07-29T05:36:11;17.70;99.90
8838;DHT22;4455;50.880;4.698;2022-07-29T05:38:37;17.80;99.90
8838;DHT22;4455;50.880;4.698;2022-07-29T05:41:06;17.80;99.90
8838;DHT22;4455;50.880;4.698;2022-07-29T05:43:32;18.00;99.90
8838;DHT22;4455;50.880;4.698;2022-07-29T05:45:58;18.30;99.90
8838;DHT22;4455;50.880;4.698;2022-07-29T05:48:24;18.90;99.90
8838;DHT22;4455;50.880;4.698;2022-07-29T05:50:50;19.60;99.90
8838;DHT22;4455;50.880;4.698;2022-07-29T05:53:16;20.20;99.90
8838;DHT22;4455;50.880;4.698;2022-07-29T05:55:42;20.80;99.90
8838;DHT22;4455;50.880;4.698;2022-07-29T05:58:08;21.30;99.90
8838;DHT22;4455;50.880;4.698;2022-07-29T06:00:34;21.80;99.90
8838;DHT22;4455;50.880;4.698;2022-07-29T06:03:01;22.10;99.90
8838;DHT22;4455;50.880;4.698;2022-07-29T06:05:27;22.30;99.80
8838;DHT22;4455;50.880;4.698;2022-07-29T06:07:53;22.30;99.30
8838;DHT22;4455;50.880;4.698;2022-07-29T06:10:19;22.40;99.40
8838;DHT22;4455;50.880;4.698;2022-07-29T06:12:44;22.60;99.10
8838;DHT22;4455;50.880;4.698;2022-07-29T06:15:11;22.80;98.80
8838;DHT22;4455;50.880;4.698;2022-07-29T06:17:39;22.70;98.40
8838;DHT22;4455;50.880;4.698;2022-07-29T06:20:05;22.60;98.60
8838;DHT22;4455;50.880;4.698;2022-07-29T06:22:32;22.60;98.60
8838;DHT22;4455;50.880;4.698;2022-07-29T06:24:57;22.80;98.30
8838;DHT22;4455;50.880;4.698;2022-07-29T06:27:24;23.00;97.90
8838;DHT22;4455;50.880;4.698;2022-07-29T06:29:50;23.10;97.50
8838;DHT22;4455;50.880;4.698;2022-07-29T06:32:16;23.20;97.40
8838;DHT22;4455;50.880;4.698;2022-07-29T06:34:43;23.10;97.50
8838;DHT22;4455;50.880;4.698;2022-07-29T06:37:09;23.20;97.50
8838;DHT22;4455;50.880;4.698;2022-07-29T06:39:36;23.20;97.80
8838;DHT22;4455;50.880;4.698;2022-07-29T06:42:04;23.30;97.70
8838;DHT22;4455;50.880;4.698;2022-07-29T06:44:30;23.40;97.50
8838;DHT22;4455;50.880;4.698;2022-07-29T06:47:01;23.70;97.30
8838;DHT22;4455;50.880;4.698;2022-07-29T06:49:28;23.80;96.90
8838;DHT22;4455;50.880;4.698;2022-07-29T06:51:55;23.90;96.40
8838;DHT22;4455;50.880;4.698;2022-07-29T06:54:21;23.90;96.40
8838;DHT22;4455;50.880;4.698;2022-07-29T06:56:48;23.80;96.60
8838;DHT22;4455;50.880;4.698;2022-07-29T06:59:14;23.70;97.10
8838;DHT22;4455;50.880;4.698;2022-07-29T07:01:42;23.70;96.90
8838;DHT22;4455;50.880;4.698;2022-07-29T07:04:10;23.80;96.90
8838;DHT22;4455;50.880;4.698;2022-07-29T07:06:36;23.90;96.60
8838;DHT22;4455;50.880;4.698;2022-07-29T07:09:02;23.90;96.70
8838;DHT22;4455;50.880;4.698;2022-07-29T07:11:30;24.20;96.10
8838;DHT22;4455;50.880;4.698;2022-07-29T07:13:56;24.10;96.40
8838;DHT22;4455;50.880;4.698;2022-07-29T07:16:21;24.40;96.10
8838;DHT22;4455;50.880;4.698;2022-07-29T07:18:49;24.50;96.10
8838;DHT22;4455;50.880;4.698;2022-07-29T07:21:14;24.30;96.10
8838;DHT22;4455;50.880;4.698;2022-07-29T07:23:40;24.10;96.30
8838;DHT22;4455;50.880;4.698;2022-07-29T07:26:06;24.20;96.20
8838;DHT22;4455;50.880;4.698;2022-07-29T07:28:32;24.20;96.30
8838;DHT22;4455;50.880;4.698;2022-07-29T07:31:07;24.30;96.40
8838;DHT22;4455;50.880;4.698;2022-07-29T07:33:32;24.50;96.20
8838;DHT22;4455;50.880;4.698;2022-07-29T07:35:58;24.60;95.80
8838;DHT22;4455;50.880;4.698;2022-07-29T07:38:27;24.30;96.00
8838;DHT22;4455;50.880;4.698;2022-07-29T07:40:58;24.10;96.60
8838;DHT22;4455;50.880;4.698;2022-07-29T07:43:25;24.20;96.60
8838;DHT22;4455;50.880;4.698;2022-07-29T07:45:51;24.40;96.10
8838;DHT22;4455;50.880;4.698;2022-07-29T07:48:17;24.60;96.00
8838;DHT22;4455;50.880;4.698;2022-07-29T07:50:42;24.90;95.30
8838;DHT22;4455;50.880;4.698;2022-07-29T07:53:09;25.00;95.50
8838;DHT22;4455;50.880;4.698;2022-07-29T07:55:44;25.20;95.20
8838;DHT22;4455;50.880;4.698;2022-07-29T07:58:10;25.20;95.30
8838;DHT22;4455;50.880;4.698;2022-07-29T08:00:38;25.10;95.30
8838;DHT22;4455;50.880;4.698;2022-07-29T08:03:04;24.90;95.30
8838;DHT22;4455;50.880;4.698;2022-07-29T08:05:30;24.90;95.70
8838;DHT22;4455;50.880;4.698;2022-07-29T08:08:00;25.20;95.10
8838;DHT22;4455;50.880;4.698;2022-07-29T08:10:27;25.40;94.90
8838;DHT22;4455;50.880;4.698;2022-07-29T08:13:12;25.30;95.20
8838;DHT22;4455;50.880;4.698;2022-07-29T08:15:40;25.40;95.00
8838;DHT22;4455;50.880;4.698;2022-07-29T08:18:08;25.30;95.20
8838;DHT22;4455;50.880;4.698;2022-07-29T08:20:35;25.20;95.50
8838;DHT22;4455;50.880;4.698;2022-07-29T08:23:02;24.90;95.70
8838;DHT22;4455;50.880;4.698;2022-07-29T08:25:28;24.40;96.50
8838;DHT22;4455;50.880;4.698;2022-07-29T08:27:54;23.90;97.10
8838;DHT22;4455;50.880;4.698;2022-07-29T08:30:22;23.50;98.10
8838;DHT22;4455;50.880;4.698;2022-07-29T08:32:48;22.90;98.70
8838;DHT22;4455;50.880;4.698;2022-07-29T08:35:16;22.80;99.50
8838;DHT22;4455;50.880;4.698;2022-07-29T08:37:41;22.80;99.60
8838;DHT22;4455;50.880;4.698;2022-07-29T08:40:08;22.80;99.80
8838;DHT22;4455;50.880;4.698;2022-07-29T08:42:35;22.70;99.90
8838;DHT22;4455;50.880;4.698;2022-07-29T08:45:03;22.90;99.80
8838;DHT22;4455;50.880;4.698;2022-07-29T08:47:32;23.10;99.50
8838;DHT22;4455;50.880;4.698;2022-07-29T08:49:59;23.20;99.60
8838;DHT22;4455;50.880;4.698;2022-07-29T08:52:27;23.30;99.00
8838;DHT22;4455;50.880;4.698;2022-07-29T08:54:56;23.20;99.70
8838;DHT22;4455;50.880;4.698;2022-07-29T08:57:25;23.40;99.30
8838;DHT22;4455;50.880;4.698;2022-07-29T08:59:52;23.40;99.10
8838;DHT22;4455;50.880;4.698;2022-07-29T09:02:23;23.40;98.70
8838;DHT22;4455;50.880;4.698;2022-07-29T09:04:50;23.50;98.60
8838;DHT22;4455;50.880;4.698;2022-07-29T09:07:18;23.50;98.80
8838;DHT22;4455;50.880;4.698;2022-07-29T09:09:45;23.50;98.80
8838;DHT22;4455;50.880;4.698;2022-07-29T09:12:11;23.70;99.00
8838;DHT22;4455;50.880;4.698;2022-07-29T09:14:38;23.80;98.60
8838;DHT22;4455;50.880;4.698;2022-07-29T09:17:04;23.80;98.60
8838;DHT22;4455;50.880;4.698;2022-07-29T09:19:32;23.90;98.40
8838;DHT22;4455;50.880;4.698;2022-07-29T09:22:02;24.00;98.20
8838;DHT22;4455;50.880;4.698;2022-07-29T09:24:38;24.10;98.30
8838;DHT22;4455;50.880;4.698;2022-07-29T09:27:21;23.90;98.20
8838;DHT22;4455;50.880;4.698;2022-07-29T09:30:05;23.90;98.40
8838;DHT22;4455;50.880;4.698;2022-07-29T09:32:54;24.10;97.50
8838;DHT22;4455;50.880;4.698;2022-07-29T09:35:22;24.20;97.10
8838;DHT22;4455;50.880;4.698;2022-07-29T09:37:48;24.10;97.30
8838;DHT22;4455;50.880;4.698;2022-07-29T09:40:20;24.20;97.40
8838;DHT22;4455;50.880;4.698;2022-07-29T09:42:47;24.30;96.90
8838;DHT22;4455;50.880;4.698;2022-07-29T09:45:34;24.30;96.90
8838;DHT22;4455;50.880;4.698;2022-07-29T09:48:24;24.40;96.90
8838;DHT22;4455;50.880;4.698;2022-07-29T09:50:52;24.40;96.30
8838;DHT22;4455;50.880;4.698;2022-07-29T09:53:36;24.40;96.20
8838;DHT22;4455;50.880;4.698;2022-07-29T09:56:03;24.50;96.10
8838;DHT22;4455;50.880;4.698;2022-07-29T09:58:30;24.60;96.10
8838;DHT22;4455;50.880;4.698;2022-07-29T10:01:00;24.70;95.90
8838;DHT22;4455;50.880;4.698;2022-07-29T10:03:27;24.70;95.80
8838;DHT22;4455;50.880;4.698;2022-07-29T10:08:33;24.70;95.60
8838;DHT22;4455;50.880;4.698;2022-07-29T10:11:13;24.70;95.70
8838;DHT22;4455;50.880;4.698;2022-07-29T10:13:49;24.80;95.70
8838;DHT22;4455;50.880;4.698;2022-07-29T10:16:16;24.60;95.40
8838;DHT22;4455;50.880;4.698;2022-07-29T10:18:43;24.60;95.60
8838;DHT22;4455;50.880;4.698;2022-07-29T10:21:09;24.60;96.00
8838;DHT22;4455;50.880;4.698;2022-07-29T10:23:37;24.60;96.00
8838;DHT22;4455;50.880;4.698;2022-07-29T10:26:04;24.60;96.20
8838;DHT22;4455;50.880;4.698;2022-07-29T10:28:31;24.60;95.50
8838;DHT22;4455;50.880;4.698;2022-07-29T10:31:06;24.70;95.30
8838;DHT22;4455;50.880;4.698;2022-07-29T10:42:22;24.80;94.70
8838;DHT22;4455;50.880;4.698;2022-07-29T10:44:52;24.90;95.00
8838;DHT22;4455;50.880;4.698;2022-07-29T10:47:26;24.90;95.30
8838;DHT22;4455;50.880;4.698;2022-07-29T10:49:59;24.90;95.20
8838;DHT22;4455;50.880;4.698;2022-07-29T10:55:39;25.20;93.90
8838;DHT22;4455;50.880;4.698;2022-07-29T10:58:12;25.10;94.10
8838;DHT22;4455;50.880;4.698;2022-07-29T11:00:40;25.00;93.90
8838;DHT22;4455;50.880;4.698;2022-07-29T11:03:06;25.00;93.80
8838;DHT22;4455;50.880;4.698;2022-07-29T11:05:53;25.10;94.30
8838;DHT22;4455;50.880;4.698;2022-07-29T11:08:21;25.20;93.70
8838;DHT22;4455;50.880;4.698;2022-07-29T11:10:51;25.20;94.00
8838;DHT22;4455;50.880;4.698;2022-07-29T11:16:19;25.30;93.90
8838;DHT22;4455;50.880;4.698;2022-07-29T11:21:43;25.30;94.30
8838;DHT22;4455;50.880;4.698;2022-07-29T11:24:31;25.50;93.90
8838;DHT22;4455;50.880;4.698;2022-07-29T11:27:14;25.60;93.40
8838;DHT22;4455;50.880;4.698;2022-07-29T11:29:55;25.60;93.50
8838;DHT22;4455;50.880;4.698;2022-07-29T11:32:23;25.70;93.40
8838;DHT22;4455;50.880;4.698;2022-07-29T11:37:39;25.60;92.40
8838;DHT22;4455;50.880;4.698;2022-07-29T11:40:10;25.40;91.80
8838;DHT22;4455;50.880;4.698;2022-07-29T11:42:37;25.20;92.80
8838;DHT22;4455;50.880;4.698;2022-07-29T11:45:05;25.10;93.10
8838;DHT22;4455;50.880;4.698;2022-07-29T11:47:32;24.90;93.40
8838;DHT22;4455;50.880;4.698;2022-07-29T11:50:00;24.90;92.50
8838;DHT22;4455;50.880;4.698;2022-07-29T11:52:37;25.10;92.60
8838;DHT22;4455;50.880;4.698;2022-07-29T11:55:11;25.30;92.70
8838;DHT22;4455;50.880;4.698;2022-07-29T11:57:55;25.30;92.90
8838;DHT22;4455;50.880;4.698;2022-07-29T12:00:36;25.40;92.10
8838;DHT22;4455;50.880;4.698;2022-07-29T12:03:05;25.40;92.40
8838;DHT22;4455;50.880;4.698;2022-07-29T12:08:11;25.40;91.60
8838;DHT22;4455;50.880;4.698;2022-07-29T12:10:40;25.40;91.60
8838;DHT22;4455;50.880;4.698;2022-07-29T12:13:06;25.50;91.90
8838;DHT22;4455;50.880;4.698;2022-07-29T12:15:32;25.60;92.00
8838;DHT22;4455;50.880;4.698;2022-07-29T12:17:58;25.50;91.90
8838;DHT22;4455;50.880;4.698;2022-07-29T12:20:27;25.50;91.90
8838;DHT22;4455;50.880;4.698;2022-07-29T12:22:54;25.60;92.30
8838;DHT22;4455;50.880;4.698;2022-07-29T12:25:22;25.70;91.30
8838;DHT22;4455;50.880;4.698;2022-07-29T12:27:57;25.70;91.10
8838;DHT22;4455;50.880;4.698;2022-07-29T12:30:40;25.60;91.30
8838;DHT22;4455;50.880;4.698;2022-07-29T12:33:27;25.60;91.10
8838;DHT22;4455;50.880;4.698;2022-07-29T12:36:00;25.60;91.00
8838;DHT22;4455;50.880;4.698;2022-07-29T12:38:27;25.80;90.80
8838;DHT22;4455;50.880;4.698;2022-07-29T12:40:54;25.90;90.70
8838;DHT22;4455;50.880;4.698;2022-07-29T12:43:24;26.00;90.30
8838;DHT22;4455;50.880;4.698;2022-07-29T12:45:55;25.90;90.20
8838;DHT22;4455;50.880;4.698;2022-07-29T12:48:39;25.80;90.50
8838;DHT22;4455;50.880;4.698;2022-07-29T12:51:07;26.00;90.10
8838;DHT22;4455;50.880;4.698;2022-07-29T12:53:34;26.00;90.00
8838;DHT22;4455;50.880;4.698;2022-07-29T12:56:03;26.10;90.10
8838;DHT22;4455;50.880;4.698;2022-07-29T12:58:36;25.90;90.00
8838;DHT22;4455;50.880;4.698;2022-07-29T13:01:06;25.80;90.40
8838;DHT22;4455;50.880;4.698;2022-07-29T13:03:58;25.90;90.80
8838;DHT22;4455;50.880;4.698;2022-07-29T13:06:34;25.90;90.30
8838;DHT22;4455;50.880;4.698;2022-07-29T13:09:10;25.90;90.30
8838;DHT22;4455;50.880;4.698;2022-07-29T13:11:39;26.00;90.10
8838;DHT22;4455;50.880;4.698;2022-07-29T13:14:11;26.00;89.40
8838;DHT22;4455;50.880;4.698;2022-07-29T13:17:11;26.00;89.70
8838;DHT22;4455;50.880;4.698;2022-07-29T13:19:44;25.90;88.10
8838;DHT22;4455;50.880;4.698;2022-07-29T13:22:16;25.80;89.10
8838;DHT22;4455;50.880;4.698;2022-07-29T13:27:29;25.80;89.00
8838;DHT22;4455;50.880;4.698;2022-07-29T13:29:59;25.80;88.80
8838;DHT22;4455;50.880;4.698;2022-07-29T13:32:28;25.90;88.40
8838;DHT22;4455;50.880;4.698;2022-07-29T13:34:59;26.00;88.50
8838;DHT22;4455;50.880;4.698;2022-07-29T13:37:25;25.90;88.40
8838;DHT22;4455;50.880;4.698;2022-07-29T13:39:53;26.00;87.10
8838;DHT22;4455;50.880;4.698;2022-07-29T13:42:23;26.20;85.50
8838;DHT22;4455;50.880;4.698;2022-07-29T13:44:50;26.40;84.30
8838;DHT22;4455;50.880;4.698;2022-07-29T13:47:21;26.40;83.90
8838;DHT22;4455;50.880;4.698;2022-07-29T13:49:48;26.40;84.50
8838;DHT22;4455;50.880;4.698;2022-07-29T13:52:15;26.50;85.10
8838;DHT22;4455;50.880;4.698;2022-07-29T13:54:41;26.50;85.20
8838;DHT22;4455;50.880;4.698;2022-07-29T13:57:09;26.50;84.80
8838;DHT22;4455;50.880;4.698;2022-07-29T13:59:39;26.50;84.50
8838;DHT22;4455;50.880;4.698;2022-07-29T14:02:07;26.40;84.60
8838;DHT22;4455;50.880;4.698;2022-07-29T14:04:33;26.50;84.10
8838;DHT22;4455;50.880;4.698;2022-07-29T14:06:59;26.50;84.30
8838;DHT22;4455;50.880;4.698;2022-07-29T14:09:25;26.70;84.40
8838;DHT22;4455;50.880;4.698;2022-07-29T14:11:53;26.80;83.10
8838;DHT22;4455;50.880;4.698;2022-07-29T14:14:24;26.80;83.20
8838;DHT22;4455;50.880;4.698;2022-07-29T14:16:51;26.80;83.20
8838;DHT22;4455;50.880;4.698;2022-07-29T14:19:16;26.70;84.00
8838;DHT22;4455;50.880;4.698;2022-07-29T14:21:42;26.60;83.90
8838;DHT22;4455;50.880;4.698;2022-07-29T14:24:08;26.40;84.90
8838;DHT22;4455;50.880;4.698;2022-07-29T14:26:35;26.30;84.60
8838;DHT22;4455;50.880;4.698;2022-07-29T14:29:01;26.20;84.10
8838;DHT22;4455;50.880;4.698;2022-07-29T14:31:28;26.20;84.50
8838;DHT22;4455;50.880;4.698;2022-07-29T14:33:55;26.20;85.40
8838;DHT22;4455;50.880;4.698;2022-07-29T14:36:21;26.10;84.90
8838;DHT22;4455;50.880;4.698;2022-07-29T14:38:47;26.10;84.00
8838;DHT22;4455;50.880;4.698;2022-07-29T14:41:14;26.10;84.10
8838;DHT22;4455;50.880;4.698;2022-07-29T14:43:42;26.10;83.70
8838;DHT22;4455;50.880;4.698;2022-07-29T14:46:08;26.10;84.30
8838;DHT22;4455;50.880;4.698;2022-07-29T14:48:35;26.10;84.50
8838;DHT22;4455;50.880;4.698;2022-07-29T14:51:01;26.10;84.30
8838;DHT22;4455;50.880;4.698;2022-07-29T14:53:27;26.00;84.40
8838;DHT22;4455;50.880;4.698;2022-07-29T14:55:54;26.00;84.70
8838;DHT22;4455;50.880;4.698;2022-07-29T14:58:19;25.90;84.80
8838;DHT22;4455;50.880;4.698;2022-07-29T15:00:47;25.90;85.30
8838;DHT22;4455;50.880;4.698;2022-07-29T15:03:13;26.00;85.70
8838;DHT22;4455;50.880;4.698;2022-07-29T15:05:39;26.10;85.80
8838;DHT22;4455;50.880;4.698;2022-07-29T15:08:06;26.20;84.00
8838;DHT22;4455;50.880;4.698;2022-07-29T15:10:33;26.40;83.40
8838;DHT22;4455;50.880;4.698;2022-07-29T15:12:59;26.50;82.50
8838;DHT22;4455;50.880;4.698;2022-07-29T15:15:26;26.70;82.00
8838;DHT22;4455;50.880;4.698;2022-07-29T15:17:52;26.80;81.70
8838;DHT22;4455;50.880;4.698;2022-07-29T15:20:18;26.90;81.10
8838;DHT22;4455;50.880;4.698;2022-07-29T15:22:44;27.00;81.20
8838;DHT22;4455;50.880;4.698;2022-07-29T15:25:10;27.00;79.70
8838;DHT22;4455;50.880;4.698;2022-07-29T15:27:36;26.90;78.90
8838;DHT22;4455;50.880;4.698;2022-07-29T15:30:02;26.80;79.80
8838;DHT22;4455;50.880;4.698;2022-07-29T15:32:29;26.80;80.10
8838;DHT22;4455;50.880;4.698;2022-07-29T15:35:02;26.70;78.20
8838;DHT22;4455;50.880;4.698;2022-07-29T15:37:29;26.60;76.10
8838;DHT22;4455;50.880;4.698;2022-07-29T15:39:56;26.50;76.90
8838;DHT22;4455;50.880;4.698;2022-07-29T15:42:23;26.50;77.70
8838;DHT22;4455;50.880;4.698;2022-07-29T15:44:50;26.60;77.60
8838;DHT22;4455;50.880;4.698;2022-07-29T15:47:16;26.70;77.10
8838;DHT22;4455;50.880;4.698;2022-07-29T15:49:43;26.60;76.70
8838;DHT22;4455;50.880;4.698;2022-07-29T15:52:09;26.60;77.00
8838;DHT22;4455;50.880;4.698;2022-07-29T15:54:37;26.60;77.80
8838;DHT22;4455;50.880;4.698;2022-07-29T15:57:08;26.50;76.90
8838;DHT22;4455;50.880;4.698;2022-07-29T15:59:35;26.30;76.30
8838;DHT22;4455;50.880;4.698;2022-07-29T16:02:01;26.30;77.70
8838;DHT22;4455;50.880;4.698;2022-07-29T16:04:28;26.40;78.10
8838;DHT22;4455;50.880;4.698;2022-07-29T16:06:56;26.40;77.00
8838;DHT22;4455;50.880;4.698;2022-07-29T16:09:23;26.50;76.00
8838;DHT22;4455;50.880;4.698;2022-07-29T16:11:49;26.60;76.50
8838;DHT22;4455;50.880;4.698;2022-07-29T16:14:24;26.70;75.90
8838;DHT22;4455;50.880;4.698;2022-07-29T16:16:52;26.70;75.50
8838;DHT22;4455;50.880;4.698;2022-07-29T16:19:17;26.70;75.80
8838;DHT22;4455;50.880;4.698;2022-07-29T16:21:43;26.70;75.80
8838;DHT22;4455;50.880;4.698;2022-07-29T16:24:12;26.70;75.70
8838;DHT22;4455;50.880;4.698;2022-07-29T16:26:38;26.70;77.30
8838;DHT22;4455;50.880;4.698;2022-07-29T16:29:04;26.70;75.20
8838;DHT22;4455;50.880;4.698;2022-07-29T16:31:30;26.60;75.50
8838;DHT22;4455;50.880;4.698;2022-07-29T16:33:57;26.50;76.00
8838;DHT22;4455;50.880;4.698;2022-07-29T16:36:24;26.40;76.50
8838;DHT22;4455;50.880;4.698;2022-07-29T16:38:52;26.50;77.30
8838;DHT22;4455;50.880;4.698;2022-07-29T16:41:21;26.50;75.80
8838;DHT22;4455;50.880;4.698;2022-07-29T16:43:52;26.50;74.80
8838;DHT22;4455;50.880;4.698;2022-07-29T16:46:20;26.50;73.50
8838;DHT22;4455;50.880;4.698;2022-07-29T16:48:55;26.50;74.90
8838;DHT22;4455;50.880;4.698;2022-07-29T16:51:26;26.60;75.50
8838;DHT22;4455;50.880;4.698;2022-07-29T16:53:52;26.50;75.30
8838;DHT22;4455;50.880;4.698;2022-07-29T16:56:20;26.40;74.70